Time;durP1;ratioP1;P1;durP2;ratioP2;P2;SDS_P1;SDS_P2;PMS_P1;PMS_P2;Temp;Humidity;BMP_temperature;BMP_pressure;BME280_temperature;BME280_humidity;BME280_pressure;Samples;Min_cycle;Max_cycle;Signal;HPM_P1;HPM_P2
2023/04/07 00:01:45;;;;;;;;;;;6.60;62.60;;;;;;4987563;28;20008;-80
2023/04/07 00:04:10;;;;;;;;;;;6.50;62.70;;;;;;4992054;28;20295;-80
2023/04/07 00:06:45;;;;;;;;;;;6.50;62.50;;;;;;4981615;28;20393;-80
2023/04/07 00:09:10;;;;;;;;;;;6.60;62.40;;;;;;4978839;28;19937;-79
2023/04/07 00:11:36;;;;;;;;;;;6.50;62.60;;;;;;4980051;28;19953;-80
2023/04/07 00:14:09;;;;;;;;;;;6.40;62.80;;;;;;4970694;28;19906;-80
2023/04/07 00:16:40;;;;;;;;;;;6.50;62.90;;;;;;4979393;28;20795;-80
2023/04/07 00:19:05;;;;;;;;;;;6.40;63.10;;;;;;4982903;28;19913;-80
2023/04/07 00:21:31;;;;;;;;;;;6.40;63.10;;;;;;4979884;28;19989;-80
2023/04/07 00:23:56;;;;;;;;;;;6.40;63.30;;;;;;4969031;28;20784;-80
2023/04/07 00:26:25;;;;;;;;;;;6.40;63.10;;;;;;4970786;28;19906;-80
2023/04/07 00:28:58;;;;;;;;;;;6.50;63.20;;;;;;4984537;28;19952;-80
2023/04/07 00:31:24;;;;;;;;;;;6.50;63.10;;;;;;4980396;28;19945;-80
2023/04/07 00:33:56;;;;;;;;;;;6.50;63.30;;;;;;4971350;28;19913;-80
2023/04/07 00:36:22;;;;;;;;;;;6.50;63.20;;;;;;4989644;28;19917;-80
2023/04/07 00:38:50;;;;;;;;;;;6.40;63.30;;;;;;4967290;28;20366;-81
2023/04/07 00:41:37;;;;;;;;;;;6.40;63.10;;;;;;4963929;28;20041;-80
2023/04/07 00:44:04;;;;;;;;;;;6.40;63.30;;;;;;4980629;28;19964;-81
2023/04/07 00:46:29;;;;;;;;;;;6.40;63.30;;;;;;4983416;28;19909;-81
2023/04/07 00:48:55;;;;;;;;;;;6.40;63.30;;;;;;4979261;28;19906;-82
2023/04/07 00:51:28;;;;;;;;;;;6.40;63.20;;;;;;4975102;28;20495;-81
2023/04/07 00:54:01;;;;;;;;;;;6.40;63.30;;;;;;4978082;28;19918;-81
2023/04/07 00:56:27;;;;;;;;;;;6.40;63.40;;;;;;4979660;28;19909;-81
2023/04/07 00:58:56;;;;;;;;;;;6.40;63.50;;;;;;4970407;28;20446;-81
2023/04/07 01:01:35;;;;;;;;;;;6.40;63.30;;;;;;4977268;28;19952;-81
2023/04/07 01:04:20;;;;;;;;;;;6.40;63.40;;;;;;4977252;28;19960;-81
2023/04/07 01:06:49;;;;;;;;;;;6.40;63.30;;;;;;4976385;28;19985;-81
2023/04/07 01:09:34;;;;;;;;;;;6.40;63.20;;;;;;4978791;28;20580;-81
2023/04/07 01:12:06;;;;;;;;;;;6.40;63.20;;;;;;4980254;28;19910;-81
2023/04/07 01:14:39;;;;;;;;;;;6.40;63.20;;;;;;4967016;28;19906;-81
2023/04/07 01:17:08;;;;;;;;;;;6.30;63.20;;;;;;4974282;28;21430;-81
2023/04/07 01:19:52;;;;;;;;;;;6.30;63.70;;;;;;4978533;28;19910;-81
2023/04/07 01:22:22;;;;;;;;;;;6.30;63.90;;;;;;4969302;28;19909;-80
2023/04/07 01:25:06;;;;;;;;;;;6.30;64.30;;;;;;4978006;28;19988;-81
2023/04/07 01:27:36;;;;;;;;;;;6.20;63.80;;;;;;4981682;28;19918;-81
2023/04/07 01:30:06;;;;;;;;;;;6.30;63.90;;;;;;4982181;28;19914;-81
2023/04/07 01:32:37;;;;;;;;;;;6.30;64.00;;;;;;4966330;28;19953;-80
2023/04/07 01:35:16;;;;;;;;;;;6.30;64.00;;;;;;4978693;28;19906;-81
2023/04/07 01:37:45;;;;;;;;;;;6.30;64.30;;;;;;4988790;28;20244;-81
2023/04/07 01:40:17;;;;;;;;;;;6.30;64.40;;;;;;4973629;28;19906;-81
2023/04/07 01:42:44;;;;;;;;;;;6.20;64.20;;;;;;4989160;28;20298;-81
2023/04/07 01:45:10;;;;;;;;;;;6.30;64.30;;;;;;4972733;28;19910;-81
2023/04/07 01:47:38;;;;;;;;;;;6.20;64.50;;;;;;4971732;28;20005;-81
2023/04/07 01:50:05;;;;;;;;;;;6.20;64.60;;;;;;4978280;28;19914;-81
2023/04/07 01:52:43;;;;;;;;;;;6.20;64.70;;;;;;4976807;28;19913;-81
2023/04/07 01:55:09;;;;;;;;;;;6.10;64.80;;;;;;4984779;28;19949;-80
2023/04/07 01:57:40;;;;;;;;;;;6.10;65.00;;;;;;4987342;28;20515;-81
2023/04/07 02:00:07;;;;;;;;;;;6.10;64.80;;;;;;4981061;28;19918;-81
2023/04/07 02:02:35;;;;;;;;;;;6.10;65.00;;;;;;4963449;28;19914;-81
2023/04/07 02:05:04;;;;;;;;;;;6.20;65.00;;;;;;4985924;28;19906;-81
2023/04/07 02:07:40;;;;;;;;;;;6.20;65.00;;;;;;4967532;28;19906;-82
2023/04/07 02:10:09;;;;;;;;;;;6.20;65.20;;;;;;4981765;28;19996;-80
2023/04/07 02:12:36;;;;;;;;;;;6.20;65.20;;;;;;4973713;28;19976;-81
2023/04/07 02:15:10;;;;;;;;;;;6.10;65.10;;;;;;4977758;28;19906;-81
2023/04/07 02:17:44;;;;;;;;;;;6.20;65.20;;;;;;4965877;28;19914;-81
2023/04/07 02:20:12;;;;;;;;;;;6.10;65.30;;;;;;4981638;28;20481;-81
2023/04/07 02:22:39;;;;;;;;;;;6.10;65.30;;;;;;4983525;28;19909;-79
2023/04/07 02:25:25;;;;;;;;;;;6.10;65.50;;;;;;4971216;28;20653;-80
2023/04/07 02:27:55;;;;;;;;;;;6.00;65.70;;;;;;4979175;28;20363;-81
2023/04/07 02:30:27;;;;;;;;;;;6.00;65.70;;;;;;4981450;28;19906;-84
2023/04/07 02:33:01;;;;;;;;;;;6.00;65.80;;;;;;4969393;28;19909;-81
2023/04/07 02:35:26;;;;;;;;;;;6.00;65.90;;;;;;4974371;28;19909;-81
2023/04/07 02:38:00;;;;;;;;;;;6.00;66.00;;;;;;4981919;28;20413;-81
2023/04/07 02:40:26;;;;;;;;;;;6.00;66.20;;;;;;4980245;28;19956;-81
2023/04/07 02:42:59;;;;;;;;;;;6.00;66.10;;;;;;4976528;28;19929;-81
2023/04/07 02:45:26;;;;;;;;;;;6.00;66.20;;;;;;4986651;28;19913;-81
2023/04/07 02:47:51;;;;;;;;;;;6.00;66.30;;;;;;4984792;28;19906;-81
2023/04/07 02:50:18;;;;;;;;;;;5.90;66.60;;;;;;4980623;28;19906;-81
2023/04/07 02:52:47;;;;;;;;;;;5.90;66.70;;;;;;4991702;28;19914;-81
2023/04/07 02:55:14;;;;;;;;;;;5.90;66.60;;;;;;4985603;28;19993;-81
2023/04/07 02:57:46;;;;;;;;;;;5.90;66.70;;;;;;4986285;28;19914;-81
2023/04/07 03:00:12;;;;;;;;;;;5.90;66.90;;;;;;4970624;28;20331;-80
2023/04/07 03:02:38;;;;;;;;;;;5.90;66.60;;;;;;4981651;28;19921;-81
2023/04/07 03:05:03;;;;;;;;;;;5.80;66.60;;;;;;4977234;28;20225;-81
2023/04/07 03:07:30;;;;;;;;;;;5.80;67.50;;;;;;4965398;28;19909;-81
2023/04/07 03:09:57;;;;;;;;;;;5.70;67.20;;;;;;4970989;28;20517;-81
2023/04/07 03:12:22;;;;;;;;;;;5.60;67.20;;;;;;4982821;28;19914;-80
2023/04/07 03:14:48;;;;;;;;;;;5.50;67.70;;;;;;4992594;28;19906;-80
2023/04/07 03:17:15;;;;;;;;;;;5.50;68.10;;;;;;4970483;28;19914;-81
2023/04/07 03:19:40;;;;;;;;;;;5.40;68.40;;;;;;4985985;28;19912;-81
2023/04/07 03:22:07;;;;;;;;;;;5.30;68.40;;;;;;4983175;28;19913;-81
2023/04/07 03:24:34;;;;;;;;;;;5.30;68.90;;;;;;4985627;28;20921;-81
2023/04/07 03:27:01;;;;;;;;;;;5.20;69.10;;;;;;4986979;28;19918;-81
2023/04/07 03:29:26;;;;;;;;;;;5.10;69.50;;;;;;4975467;28;20732;-81
2023/04/07 03:31:52;;;;;;;;;;;5.10;69.80;;;;;;4985848;28;19910;-81
2023/04/07 03:34:17;;;;;;;;;;;5.00;69.90;;;;;;4970287;28;20434;-81
2023/04/07 03:36:43;;;;;;;;;;;5.00;70.30;;;;;;4982133;28;20008;-81
2023/04/07 03:39:08;;;;;;;;;;;4.90;70.70;;;;;;4983833;28;19988;-81
2023/04/07 03:41:35;;;;;;;;;;;4.90;71.20;;;;;;4984297;28;19913;-81
2023/04/07 03:44:00;;;;;;;;;;;4.90;71.30;;;;;;4991425;28;19905;-81
2023/04/07 03:46:26;;;;;;;;;;;4.90;71.70;;;;;;4970541;28;19917;-81
2023/04/07 03:48:52;;;;;;;;;;;4.90;72.10;;;;;;4979007;28;19906;-80
2023/04/07 03:51:17;;;;;;;;;;;4.90;72.50;;;;;;4988956;28;20053;-80
2023/04/07 03:53:43;;;;;;;;;;;4.80;72.40;;;;;;4965844;28;20378;-80
2023/04/07 03:56:08;;;;;;;;;;;4.80;73.00;;;;;;4962680;28;19980;-81
2023/04/07 03:58:34;;;;;;;;;;;4.80;73.50;;;;;;4975812;28;19913;-81
2023/04/07 04:01:00;;;;;;;;;;;4.80;73.50;;;;;;4988580;28;19910;-81
2023/04/07 04:03:25;;;;;;;;;;;4.90;73.70;;;;;;4968447;28;19921;-80
2023/04/07 04:05:54;;;;;;;;;;;4.90;73.60;;;;;;4968140;28;19913;-81
2023/04/07 04:08:21;;;;;;;;;;;4.90;74.00;;;;;;4969778;28;19910;-81
2023/04/07 04:10:48;;;;;;;;;;;4.90;74.00;;;;;;4975687;28;20662;-80
2023/04/07 04:13:14;;;;;;;;;;;5.00;73.50;;;;;;4980836;28;19914;-80
2023/04/07 04:15:39;;;;;;;;;;;5.10;73.50;;;;;;4979277;28;19929;-80
2023/04/07 04:18:06;;;;;;;;;;;5.10;73.60;;;;;;4964701;28;19914;-80
2023/04/07 04:20:37;;;;;;;;;;;5.10;73.60;;;;;;4979669;28;19906;-80
2023/04/07 04:23:06;;;;;;;;;;;5.20;73.30;;;;;;4979743;28;19988;-80
2023/04/07 04:25:38;;;;;;;;;;;5.20;73.10;;;;;;4968893;28;19906;-80
2023/04/07 04:28:11;;;;;;;;;;;5.20;73.30;;;;;;4974416;28;20347;-81
2023/04/07 04:30:51;;;;;;;;;;;5.30;72.90;;;;;;4979851;28;19914;-80
2023/04/07 04:33:17;;;;;;;;;;;5.40;72.50;;;;;;4979695;28;19910;-80
2023/04/07 04:35:46;;;;;;;;;;;5.40;72.90;;;;;;4969032;28;19984;-80
2023/04/07 04:38:12;;;;;;;;;;;5.50;72.40;;;;;;4986702;28;19905;-80
2023/04/07 04:40:37;;;;;;;;;;;5.50;72.30;;;;;;4979861;28;19916;-80
2023/04/07 04:43:05;;;;;;;;;;;5.50;72.30;;;;;;4979483;28;19906;-80
2023/04/07 04:45:32;;;;;;;;;;;5.60;72.00;;;;;;4979149;28;19960;-80
2023/04/07 04:48:06;;;;;;;;;;;5.60;71.70;;;;;;4978851;28;19917;-79
2023/04/07 04:50:37;;;;;;;;;;;5.70;72.50;;;;;;4965970;28;20035;-80
2023/04/07 04:53:04;;;;;;;;;;;5.70;71.70;;;;;;4969109;28;19917;-79
2023/04/07 04:55:39;;;;;;;;;;;5.70;71.70;;;;;;4979144;28;19909;-80
2023/04/07 04:58:17;;;;;;;;;;;5.70;71.80;;;;;;4979392;28;19913;-80
2023/04/07 05:00:44;;;;;;;;;;;5.80;71.90;;;;;;4982407;28;19909;-81
2023/04/07 05:03:10;;;;;;;;;;;5.80;71.40;;;;;;4977335;28;20020;-80
2023/04/07 05:05:37;;;;;;;;;;;5.80;71.30;;;;;;4978729;28;21410;-81
2023/04/07 05:08:03;;;;;;;;;;;6.00;71.30;;;;;;4967081;28;19979;-78
2023/04/07 05:10:29;;;;;;;;;;;6.00;70.80;;;;;;4987014;28;19991;-80
2023/04/07 05:12:54;;;;;;;;;;;6.10;70.90;;;;;;4970077;28;19913;-80
2023/04/07 05:15:26;;;;;;;;;;;6.10;70.40;;;;;;4965639;28;19909;-81
2023/04/07 05:17:57;;;;;;;;;;;6.20;70.30;;;;;;4976920;28;19906;-80
2023/04/07 05:20:29;;;;;;;;;;;6.30;70.70;;;;;;4978819;28;19964;-80
2023/04/07 05:23:00;;;;;;;;;;;6.30;70.20;;;;;;4978872;28;19913;-80
2023/04/07 05:25:27;;;;;;;;;;;6.40;70.30;;;;;;4967618;28;19910;-80
2023/04/07 05:27:56;;;;;;;;;;;6.40;69.70;;;;;;4969833;28;19914;-81
2023/04/07 05:30:22;;;;;;;;;;;6.50;69.50;;;;;;4978794;28;19905;-81
2023/04/07 05:33:03;;;;;;;;;;;6.50;69.40;;;;;;4975400;28;19909;-81
2023/04/07 05:35:30;;;;;;;;;;;6.60;69.30;;;;;;4970783;28;19906;-80
2023/04/07 05:38:17;;;;;;;;;;;6.60;69.10;;;;;;4960960;28;19906;-81
2023/04/07 05:40:53;;;;;;;;;;;6.70;69.00;;;;;;4980270;28;19905;-81
2023/04/07 05:43:24;;;;;;;;;;;6.80;68.60;;;;;;4986983;28;20299;-82
2023/04/07 05:45:51;;;;;;;;;;;6.80;68.70;;;;;;4966637;28;20302;-82
2023/04/07 05:48:17;;;;;;;;;;;6.80;68.70;;;;;;4993305;28;19949;-81
2023/04/07 05:50:44;;;;;;;;;;;6.90;68.30;;;;;;4974137;28;19905;-80
2023/04/07 05:53:11;;;;;;;;;;;7.00;68.00;;;;;;4981765;28;19909;-81
2023/04/07 05:55:40;;;;;;;;;;;7.10;67.70;;;;;;4967533;28;20016;-79
2023/04/07 05:58:08;;;;;;;;;;;7.10;67.60;;;;;;4978817;28;19920;-80
2023/04/07 06:00:35;;;;;;;;;;;7.20;67.40;;;;;;4977961;28;20405;-80
2023/04/07 06:03:02;;;;;;;;;;;7.30;67.20;;;;;;4975715;28;19916;-80
2023/04/07 06:05:28;;;;;;;;;;;7.30;67.10;;;;;;4976569;28;19968;-80
2023/04/07 06:07:54;;;;;;;;;;;7.30;67.20;;;;;;4967432;28;19913;-81
2023/04/07 06:10:20;;;;;;;;;;;7.30;67.40;;;;;;4979920;28;19913;-80
2023/04/07 06:12:59;;;;;;;;;;;7.20;67.30;;;;;;4961875;28;19910;-80
2023/04/07 06:15:33;;;;;;;;;;;7.20;67.60;;;;;;4980718;28;20363;-80
2023/04/07 06:18:08;;;;;;;;;;;7.10;67.40;;;;;;4979211;28;19916;-81
2023/04/07 06:20:45;;;;;;;;;;;7.10;67.50;;;;;;4990117;28;19943;-81
2023/04/07 06:23:10;;;;;;;;;;;7.20;67.50;;;;;;4988614;28;20497;-81
2023/04/07 06:25:40;;;;;;;;;;;7.20;67.40;;;;;;4989773;28;19914;-80
2023/04/07 06:28:05;;;;;;;;;;;7.20;67.40;;;;;;4980867;28;19914;-81
2023/04/07 06:30:33;;;;;;;;;;;7.20;67.30;;;;;;4977311;28;19913;-80
2023/04/07 06:33:00;;;;;;;;;;;7.20;67.30;;;;;;4985412;28;19957;-80
2023/04/07 06:35:38;;;;;;;;;;;7.20;67.40;;;;;;4972035;28;19910;-81
2023/04/07 06:38:11;;;;;;;;;;;7.20;67.50;;;;;;4985380;28;19957;-81
2023/04/07 06:40:38;;;;;;;;;;;7.30;67.30;;;;;;4981500;28;20424;-81
2023/04/07 06:43:06;;;;;;;;;;;7.30;67.30;;;;;;4986287;28;19952;-81
2023/04/07 06:45:34;;;;;;;;;;;7.30;67.60;;;;;;4969350;28;20485;-81
2023/04/07 06:48:05;;;;;;;;;;;7.30;67.50;;;;;;4972971;28;19906;-81
2023/04/07 06:50:31;;;;;;;;;;;7.40;67.80;;;;;;4980969;28;20417;-79
2023/04/07 06:52:57;;;;;;;;;;;7.30;67.70;;;;;;4983987;28;19913;-80
2023/04/07 06:55:23;;;;;;;;;;;7.40;68.00;;;;;;4984552;28;19931;-81
2023/04/07 06:57:54;;;;;;;;;;;7.50;68.00;;;;;;4981582;28;19912;-79
2023/04/07 07:00:37;;;;;;;;;;;7.60;67.80;;;;;;4973460;28;19944;-80
2023/04/07 07:03:04;;;;;;;;;;;7.50;68.00;;;;;;4969997;28;19913;-79
2023/04/07 07:05:32;;;;;;;;;;;7.60;67.80;;;;;;4968434;28;19928;-80
2023/04/07 07:08:13;;;;;;;;;;;7.90;67.80;;;;;;4980997;28;19912;-79
2023/04/07 07:10:50;;;;;;;;;;;8.10;67.10;;;;;;4990854;28;19917;-80
2023/04/07 07:13:17;;;;;;;;;;;8.40;66.60;;;;;;4973840;28;19917;-80
2023/04/07 07:15:44;;;;;;;;;;;8.30;66.20;;;;;;4984311;28;19989;-79
2023/04/07 07:18:15;;;;;;;;;;;8.60;66.20;;;;;;4977432;28;20051;-79
2023/04/07 07:20:43;;;;;;;;;;;8.80;65.40;;;;;;4981098;28;19929;-80
2023/04/07 07:23:20;;;;;;;;;;;8.90;65.00;;;;;;4980565;28;19913;-80
2023/04/07 07:25:47;;;;;;;;;;;9.10;64.60;;;;;;4983763;28;19960;-80
2023/04/07 07:28:13;;;;;;;;;;;9.20;64.30;;;;;;4969412;28;19914;-80
2023/04/07 07:30:41;;;;;;;;;;;9.40;64.00;;;;;;4980796;28;19914;-79
2023/04/07 07:33:07;;;;;;;;;;;9.40;63.80;;;;;;4978958;28;20005;-81
2023/04/07 07:35:36;;;;;;;;;;;9.50;64.00;;;;;;4979452;28;19960;-80
2023/04/07 07:38:02;;;;;;;;;;;9.30;64.80;;;;;;4987690;28;19928;-80
2023/04/07 07:40:28;;;;;;;;;;;9.60;63.80;;;;;;4965327;28;20541;-80
2023/04/07 07:42:53;;;;;;;;;;;9.80;63.00;;;;;;4984363;28;19909;-81
2023/04/07 07:45:23;;;;;;;;;;;9.90;62.90;;;;;;4971359;28;19905;-80
2023/04/07 07:47:49;;;;;;;;;;;10.00;62.70;;;;;;4977519;28;19906;-80
2023/04/07 07:50:22;;;;;;;;;;;9.90;63.30;;;;;;4984972;28;19918;-80
2023/04/07 07:52:58;;;;;;;;;;;10.00;63.10;;;;;;4973285;28;19992;-81
2023/04/07 07:55:36;;;;;;;;;;;10.30;62.70;;;;;;4984415;28;19945;-80
2023/04/07 07:58:03;;;;;;;;;;;10.60;62.30;;;;;;4979918;28;20275;-80
2023/04/07 08:00:31;;;;;;;;;;;10.70;62.00;;;;;;4967602;28;20021;-80
2023/04/07 08:03:03;;;;;;;;;;;10.60;61.20;;;;;;4968852;28;19906;-79
2023/04/07 08:05:29;;;;;;;;;;;10.60;61.20;;;;;;4979135;28;19917;-80
2023/04/07 08:08:01;;;;;;;;;;;10.60;61.20;;;;;;4979718;28;19910;-79
2023/04/07 08:10:37;;;;;;;;;;;10.50;61.50;;;;;;4978368;28;20319;-80
2023/04/07 08:13:18;;;;;;;;;;;10.60;61.50;;;;;;4974466;28;19914;-80
2023/04/07 08:15:47;;;;;;;;;;;10.80;61.20;;;;;;4978522;28;19921;-80
2023/04/07 08:18:14;;;;;;;;;;;10.70;60.80;;;;;;4975454;28;19910;-80
2023/04/07 08:20:40;;;;;;;;;;;10.60;61.70;;;;;;4968933;28;19976;-80
2023/04/07 08:23:06;;;;;;;;;;;10.70;61.60;;;;;;4992311;28;19913;-80
2023/04/07 08:25:33;;;;;;;;;;;10.70;61.90;;;;;;4965396;28;19913;-80
2023/04/07 08:28:00;;;;;;;;;;;10.90;61.30;;;;;;4973427;28;19913;-80
2023/04/07 08:30:28;;;;;;;;;;;11.00;61.20;;;;;;4966511;28;19960;-80
2023/04/07 08:32:53;;;;;;;;;;;11.00;61.20;;;;;;4978891;28;20395;-80
2023/04/07 08:35:21;;;;;;;;;;;11.20;60.80;;;;;;4979356;28;19990;-80
2023/04/07 08:37:47;;;;;;;;;;;11.20;60.80;;;;;;4970758;28;19909;-80
2023/04/07 08:40:29;;;;;;;;;;;11.20;61.30;;;;;;4965647;28;19909;-80
2023/04/07 08:42:59;;;;;;;;;;;11.00;61.40;;;;;;4977875;28;19910;-80
2023/04/07 08:45:37;;;;;;;;;;;10.40;61.90;;;;;;4983361;28;20152;-80
2023/04/07 08:48:06;;;;;;;;;;;10.50;62.20;;;;;;4976508;28;20007;-80
2023/04/07 08:50:32;;;;;;;;;;;10.50;62.40;;;;;;4971979;28;20256;-80
2023/04/07 08:52:59;;;;;;;;;;;10.70;62.10;;;;;;4978800;28;19920;-80
2023/04/07 08:55:25;;;;;;;;;;;10.80;61.70;;;;;;4992495;28;20001;-79
2023/04/07 08:57:58;;;;;;;;;;;11.00;61.40;;;;;;4974982;28;20013;-80
2023/04/07 09:00:37;;;;;;;;;;;10.90;61.10;;;;;;4983783;28;20012;-80
2023/04/07 09:03:03;;;;;;;;;;;10.90;60.80;;;;;;4958960;28;19956;-79
2023/04/07 09:05:30;;;;;;;;;;;10.90;60.90;;;;;;4995454;28;19950;-80
2023/04/07 09:07:56;;;;;;;;;;;10.80;61.50;;;;;;4990475;28;19909;-80
2023/04/07 09:10:31;;;;;;;;;;;10.90;61.40;;;;;;4987247;28;19947;-80
2023/04/07 09:13:04;;;;;;;;;;;10.90;61.20;;;;;;4972003;28;19913;-80
2023/04/07 09:15:33;;;;;;;;;;;10.90;61.00;;;;;;4980914;28;19910;-80
2023/04/07 09:18:08;;;;;;;;;;;11.00;60.80;;;;;;4974607;28;19917;-80
2023/04/07 09:20:54;;;;;;;;;;;11.10;60.60;;;;;;4974660;28;19956;-80
2023/04/07 09:23:35;;;;;;;;;;;11.20;60.80;;;;;;4974653;28;19993;-80
2023/04/07 09:26:37;;;;;;;;;;;11.40;60.60;;;;;;4982775;28;19988;-80
2023/04/07 09:29:06;;;;;;;;;;;11.50;60.50;;;;;;4988096;28;19913;-80
2023/04/07 09:31:46;;;;;;;;;;;11.30;60.10;;;;;;4964576;28;19972;-80
2023/04/07 09:34:30;;;;;;;;;;;11.30;60.50;;;;;;4984072;28;19914;-79
2023/04/07 09:37:15;;;;;;;;;;;10.90;60.10;;;;;;4976798;28;19905;-80
2023/04/07 09:39:52;;;;;;;;;;;10.70;61.20;;;;;;4983702;28;19913;-80
2023/04/07 09:42:22;;;;;;;;;;;11.00;61.10;;;;;;4981263;28;19913;-80
2023/04/07 09:44:55;;;;;;;;;;;11.00;60.50;;;;;;4974833;28;19913;-80
2023/04/07 09:47:25;;;;;;;;;;;11.10;60.50;;;;;;4961182;28;19944;-80
2023/04/07 09:50:05;;;;;;;;;;;11.10;60.30;;;;;;4966948;28;19906;-79
2023/04/07 09:52:51;;;;;;;;;;;10.90;61.00;;;;;;4978492;28;20325;-80
2023/04/07 09:55:19;;;;;;;;;;;11.00;60.40;;;;;;4975227;28;20066;-80
2023/04/07 09:57:50;;;;;;;;;;;10.80;60.70;;;;;;4997885;28;19910;-80
2023/04/07 10:00:19;;;;;;;;;;;10.90;60.70;;;;;;4985376;28;19906;-80
2023/04/07 10:02:52;;;;;;;;;;;10.80;59.90;;;;;;4969231;28;19996;-80
2023/04/07 10:05:21;;;;;;;;;;;10.70;60.20;;;;;;4978837;28;19917;-80
2023/04/07 10:07:50;;;;;;;;;;;10.60;60.20;;;;;;4979166;28;19913;-80
2023/04/07 10:10:16;;;;;;;;;;;10.70;60.50;;;;;;4982190;28;19910;-80
2023/04/07 10:12:44;;;;;;;;;;;10.80;60.00;;;;;;4981254;28;19917;-80
2023/04/07 10:15:16;;;;;;;;;;;10.80;59.20;;;;;;4968268;28;20008;-80
2023/04/07 10:17:50;;;;;;;;;;;10.80;59.70;;;;;;4984316;28;19910;-79
2023/04/07 10:20:22;;;;;;;;;;;10.70;60.00;;;;;;4982353;28;19905;-80
2023/04/07 10:22:50;;;;;;;;;;;10.70;59.40;;;;;;4979709;28;20383;-80
2023/04/07 10:25:19;;;;;;;;;;;10.60;60.00;;;;;;4969840;28;19910;-80
2023/04/07 10:28:03;;;;;;;;;;;10.90;59.80;;;;;;4981301;28;19914;-80
2023/04/07 10:30:31;;;;;;;;;;;11.10;59.00;;;;;;4971629;28;19910;-81
2023/04/07 10:33:00;;;;;;;;;;;10.90;59.60;;;;;;4969955;28;19987;-80
2023/04/07 10:35:48;;;;;;;;;;;11.20;59.30;;;;;;4981721;28;19913;-81
2023/04/07 10:38:18;;;;;;;;;;;11.30;58.70;;;;;;4986206;28;19909;-80
2023/04/07 10:40:50;;;;;;;;;;;11.00;58.50;;;;;;4985802;28;19909;-81
2023/04/07 10:43:35;;;;;;;;;;;11.00;58.80;;;;;;4993059;28;19917;-80
2023/04/07 10:46:05;;;;;;;;;;;10.90;58.80;;;;;;4980583;28;20264;-81
2023/04/07 10:48:41;;;;;;;;;;;10.70;58.50;;;;;;4976942;28;19937;-81
2023/04/07 10:51:13;;;;;;;;;;;10.80;59.10;;;;;;4987508;28;19910;-80
2023/04/07 10:54:02;;;;;;;;;;;10.70;58.50;;;;;;4973180;28;19949;-81
2023/04/07 10:56:49;;;;;;;;;;;10.70;59.40;;;;;;4981063;28;19960;-80
2023/04/07 10:59:18;;;;;;;;;;;10.60;58.90;;;;;;4985858;28;19921;-81
2023/04/07 11:01:49;;;;;;;;;;;10.60;59.50;;;;;;4991607;28;19917;-80
2023/04/07 11:04:15;;;;;;;;;;;10.60;59.30;;;;;;4980923;28;19928;-81
2023/04/07 11:06:47;;;;;;;;;;;10.50;59.60;;;;;;4976420;28;19918;-81
2023/04/07 11:09:17;;;;;;;;;;;10.50;59.40;;;;;;4984771;28;19921;-81
2023/04/07 11:11:46;;;;;;;;;;;10.70;59.80;;;;;;4984017;28;19910;-81
2023/04/07 11:14:23;;;;;;;;;;;10.70;59.60;;;;;;4965686;28;20569;-81
2023/04/07 11:16:51;;;;;;;;;;;10.40;58.80;;;;;;4977564;28;19906;-80
2023/04/07 11:19:17;;;;;;;;;;;10.50;59.00;;;;;;4977816;28;20015;-81
2023/04/07 11:21:48;;;;;;;;;;;10.50;59.60;;;;;;4980404;28;19916;-81
2023/04/07 11:27:17;;;;;;;;;;;10.50;58.90;;;;;;4980455;28;19906;-80
2023/04/07 11:29:45;;;;;;;;;;;10.60;59.60;;;;;;4985597;28;20641;-81
2023/04/07 11:32:12;;;;;;;;;;;10.50;59.20;;;;;;4988008;28;19964;-81
2023/04/07 11:34:41;;;;;;;;;;;10.30;60.00;;;;;;4967092;28;19913;-80
2023/04/07 11:37:22;;;;;;;;;;;10.50;60.60;;;;;;4981525;28;19914;-81
2023/04/07 11:39:56;;;;;;;;;;;10.70;60.00;;;;;;4980512;28;19997;-80
2023/04/07 11:42:38;;;;;;;;;;;10.90;59.80;;;;;;4976292;28;19905;-80
2023/04/07 11:45:19;;;;;;;;;;;11.30;59.50;;;;;;4991011;28;19909;-82
2023/04/07 11:47:50;;;;;;;;;;;10.90;59.80;;;;;;4986742;28;19910;-81
2023/04/07 11:50:15;;;;;;;;;;;11.30;59.20;;;;;;4974077;28;20056;-81
2023/04/07 11:52:48;;;;;;;;;;;11.80;58.50;;;;;;4986329;28;20681;-80
2023/04/07 11:55:18;;;;;;;;;;;12.10;57.70;;;;;;4975440;28;19913;-81
2023/04/07 11:57:43;;;;;;;;;;;12.50;57.60;;;;;;4979690;28;19910;-81
2023/04/07 12:00:10;;;;;;;;;;;12.70;56.40;;;;;;4965220;28;19915;-81
2023/04/07 12:02:39;;;;;;;;;;;13.30;55.60;;;;;;4990250;28;20466;-81
2023/04/07 12:05:05;;;;;;;;;;;13.80;55.20;;;;;;4979483;28;19917;-80
2023/04/07 12:07:31;;;;;;;;;;;14.30;54.30;;;;;;4981455;28;19938;-81
2023/04/07 12:10:17;;;;;;;;;;;13.90;53.70;;;;;;4974226;28;20310;-81
2023/04/07 12:12:53;;;;;;;;;;;14.20;54.30;;;;;;4973212;28;19909;-81
2023/04/07 12:15:24;;;;;;;;;;;13.80;53.70;;;;;;4989059;28;20024;-80
2023/04/07 12:17:57;;;;;;;;;;;13.70;54.40;;;;;;4979638;28;19906;-81
2023/04/07 12:20:22;;;;;;;;;;;13.40;54.40;;;;;;4991466;28;19916;-80
2023/04/07 12:22:48;;;;;;;;;;;12.80;55.90;;;;;;4978959;28;19906;-80
2023/04/07 12:25:13;;;;;;;;;;;12.90;56.10;;;;;;4966480;28;19928;-81
2023/04/07 12:27:44;;;;;;;;;;;13.20;56.30;;;;;;4984071;28;19914;-80
2023/04/07 12:30:12;;;;;;;;;;;12.50;56.30;;;;;;4979458;28;19918;-80
2023/04/07 12:32:39;;;;;;;;;;;12.80;57.00;;;;;;4973169;28;21649;-80
2023/04/07 12:35:06;;;;;;;;;;;13.00;56.60;;;;;;4970551;28;19914;-80
2023/04/07 12:37:33;;;;;;;;;;;13.00;56.00;;;;;;4965095;28;20374;-81
2023/04/07 12:39:59;;;;;;;;;;;12.90;55.60;;;;;;4978138;28;19909;-80
2023/04/07 12:42:26;;;;;;;;;;;12.60;56.20;;;;;;4983570;28;19906;-80
2023/04/07 12:44:55;;;;;;;;;;;12.90;56.00;;;;;;4979236;28;20271;-80
2023/04/07 12:47:22;;;;;;;;;;;13.00;56.10;;;;;;4970715;28;19912;-81
2023/04/07 12:49:48;;;;;;;;;;;13.00;55.60;;;;;;4983229;28;19970;-80
2023/04/07 12:52:20;;;;;;;;;;;13.20;55.70;;;;;;4974822;28;20564;-80
2023/04/07 12:54:46;;;;;;;;;;;13.40;55.50;;;;;;4983068;28;19936;-80
2023/04/07 12:57:12;;;;;;;;;;;13.40;55.00;;;;;;4969213;28;20348;-80
2023/04/07 12:59:44;;;;;;;;;;;13.20;55.50;;;;;;4979970;28;19964;-81
2023/04/07 13:02:12;;;;;;;;;;;12.90;55.70;;;;;;4987418;28;19912;-80
2023/04/07 13:04:42;;;;;;;;;;;12.40;56.50;;;;;;4965687;28;20635;-80
2023/04/07 13:07:11;;;;;;;;;;;11.90;57.10;;;;;;4973876;28;19980;-80
2023/04/07 13:09:42;;;;;;;;;;;11.90;57.90;;;;;;4982538;28;19920;-80
2023/04/07 13:12:13;;;;;;;;;;;12.20;57.80;;;;;;4968855;28;19917;-80
2023/04/07 13:14:40;;;;;;;;;;;12.50;57.20;;;;;;4971525;28;19937;-80
2023/04/07 13:17:07;;;;;;;;;;;12.70;56.90;;;;;;4972990;28;20446;-81
2023/04/07 13:19:38;;;;;;;;;;;11.70;57.60;;;;;;4974740;28;19910;-80
2023/04/07 13:22:04;;;;;;;;;;;11.50;58.00;;;;;;4980551;28;19996;-80
2023/04/07 13:24:31;;;;;;;;;;;11.30;59.10;;;;;;4981470;28;19996;-80
2023/04/07 13:26:56;;;;;;;;;;;10.90;59.70;;;;;;4985759;28;19958;-80
2023/04/07 13:29:25;;;;;;;;;;;11.00;60.30;;;;;;4982125;28;19996;-81
2023/04/07 13:31:50;;;;;;;;;;;11.10;60.00;;;;;;4969283;28;20330;-80
2023/04/07 13:34:16;;;;;;;;;;;11.30;60.20;;;;;;4994068;28;19906;-80
2023/04/07 13:36:44;;;;;;;;;;;11.10;60.30;;;;;;4978569;28;20365;-80
2023/04/07 13:39:12;;;;;;;;;;;11.40;60.40;;;;;;4987047;28;20447;-80
2023/04/07 13:41:37;;;;;;;;;;;11.20;60.90;;;;;;4981746;28;20697;-82
2023/04/07 13:44:05;;;;;;;;;;;11.30;61.70;;;;;;4986970;28;19968;-79
2023/04/07 13:46:35;;;;;;;;;;;11.20;62.20;;;;;;4982866;28;20371;-79
2023/04/07 13:49:01;;;;;;;;;;;11.20;61.90;;;;;;4981981;28;20626;-79
2023/04/07 13:51:29;;;;;;;;;;;11.30;62.20;;;;;;4998221;28;19910;-81
2023/04/07 13:53:56;;;;;;;;;;;11.40;62.00;;;;;;4981341;28;19917;-80
2023/04/07 13:56:24;;;;;;;;;;;11.50;61.70;;;;;;4983899;28;19906;-81
2023/04/07 13:58:51;;;;;;;;;;;11.60;61.60;;;;;;4983775;28;19937;-80
2023/04/07 14:01:18;;;;;;;;;;;11.20;62.10;;;;;;4982438;28;19906;-80
2023/04/07 14:03:45;;;;;;;;;;;11.50;62.50;;;;;;4987885;28;19910;-79
2023/04/07 14:06:14;;;;;;;;;;;11.80;61.60;;;;;;4974154;28;20340;-79
2023/04/07 14:08:39;;;;;;;;;;;12.20;61.10;;;;;;4972943;28;19914;-78
2023/04/07 14:11:08;;;;;;;;;;;12.10;61.10;;;;;;4983038;28;19914;-79
2023/04/07 14:13:37;;;;;;;;;;;11.70;64.10;;;;;;4984778;28;19945;-80
2023/04/07 14:16:06;;;;;;;;;;;11.60;65.60;;;;;;4963572;28;19956;-80
2023/04/07 14:18:36;;;;;;;;;;;11.40;66.30;;;;;;4982110;28;19914;-81
2023/04/07 14:21:10;;;;;;;;;;;11.20;67.40;;;;;;4969649;28;19968;-81
2023/04/07 14:23:41;;;;;;;;;;;11.00;67.40;;;;;;4972184;28;19914;-81
2023/04/07 14:26:10;;;;;;;;;;;11.00;67.60;;;;;;4975909;28;20805;-81
2023/04/07 14:28:37;;;;;;;;;;;10.90;68.20;;;;;;4978604;28;20306;-80
2023/04/07 14:31:04;;;;;;;;;;;10.70;69.20;;;;;;4993579;28;20004;-81
2023/04/07 14:33:30;;;;;;;;;;;10.50;70.00;;;;;;4981521;28;20379;-81
2023/04/07 14:35:57;;;;;;;;;;;10.30;70.90;;;;;;4965905;28;19996;-81
2023/04/07 14:38:24;;;;;;;;;;;10.30;71.50;;;;;;4985801;28;19906;-81
2023/04/07 14:40:54;;;;;;;;;;;10.40;72.30;;;;;;4977542;28;19909;-80
2023/04/07 14:43:19;;;;;;;;;;;10.20;72.80;;;;;;4995089;28;20688;-80